EBAW

EBAW 240520Z AUTO VRB02KT 2300 BR OVC002/// 02/01 Q1024

TAF TAF EBAW 251700Z 2518/2606 11007KT CAVOK PROB30 TEMPO 2518/2520 VRB15G30KT 3500 SHRA TSRA

EHWO

EHWO 240525Z AUTO 19003KT 120V180 1100 BR OVC000 02/02 Q1023 RED

TAF TAF EHWO 240533Z 2406/2418 17003KT 0800 FG OVC001 TEMPO 2406/2408 1500 BR SCT001 BKN002 BECMG 2408/2410 4000 BR BKN005 BECMG 2410/2413 9999 NSW FEW008 BKN015 PROB40 2410/2418 BKN008

EBBL

EBBL 240525Z AUTO 22005KT 7000 OVC004/// 01/01 Q1024 YLO

TAF EBBL 231541Z 2319/2407 10005KT 3000 BR SCT006 BECMG 2320/2322 VRB02KT 1500 BR FEW004 BECMG 2400/2402 0500 FZFG BKN002

Always consult the official METAR resources.